sensor_id;sensor_type;location;lat;lon;timestamp;pressure;altitude;pressure_sealevel;temperature;humidity
55675;BME280;41562;44.330;23.802;2023-01-19T00:01:25;99028.25;;;10.64;99.27
55675;BME280;41562;44.330;23.802;2023-01-19T00:03:54;99026.78;;;10.58;99.86
55675;BME280;41562;44.330;23.802;2023-01-19T00:06:24;99026.09;;;10.66;100.00
55675;BME280;41562;44.330;23.802;2023-01-19T00:08:53;99027.00;;;10.61;100.00
55675;BME280;41562;44.330;23.802;2023-01-19T00:11:23;99017.94;;;10.35;100.00
55675;BME280;41562;44.330;23.802;2023-01-19T00:13:50;99016.66;;;10.19;100.00
55675;BME280;41562;44.330;23.802;2023-01-19T00:16:28;99021.81;;;10.29;100.00
55675;BME280;41562;44.330;23.802;2023-01-19T00:18:58;99023.56;;;10.20;100.00
55675;BME280;41562;44.330;23.802;2023-01-19T00:21:28;99017.63;;;10.09;100.00
55675;BME280;41562;44.330;23.802;2023-01-19T00:23:55;99010.81;;;10.03;100.00
55675;BME280;41562;44.330;23.802;2023-01-19T00:26:29;99014.28;;;10.17;100.00
55675;BME280;41562;44.330;23.802;2023-01-19T00:28:56;99019.81;;;10.21;100.00
55675;BME280;41562;44.330;23.802;2023-01-19T00:31:29;99021.13;;;10.23;100.00
55675;BME280;41562;44.330;23.802;2023-01-19T00:33:56;99017.03;;;10.26;100.00
55675;BME280;41562;44.330;23.802;2023-01-19T00:36:23;99020.78;;;10.52;100.00
55675;BME280;41562;44.330;23.802;2023-01-19T00:38:50;99021.47;;;10.44;99.85
55675;BME280;41562;44.330;23.802;2023-01-19T00:41:18;99027.22;;;10.37;100.00
55675;BME280;41562;44.330;23.802;2023-01-19T00:43:45;99025.84;;;10.40;99.47
55675;BME280;41562;44.330;23.802;2023-01-19T00:46:12;99023.81;;;10.59;100.00
55675;BME280;41562;44.330;23.802;2023-01-19T00:48:40;99025.13;;;10.48;98.92
55675;BME280;41562;44.330;23.802;2023-01-19T00:51:08;99017.13;;;10.34;99.69
55675;BME280;41562;44.330;23.802;2023-01-19T00:53:35;99019.41;;;10.27;99.71
55675;BME280;41562;44.330;23.802;2023-01-19T00:56:04;99024.38;;;10.34;100.00
55675;BME280;41562;44.330;23.802;2023-01-19T00:58:31;99028.22;;;10.28;99.25
55675;BME280;41562;44.330;23.802;2023-01-19T01:01:02;99028.22;;;10.28;98.99
55675;BME280;41562;44.330;23.802;2023-01-19T01:03:31;99027.44;;;10.41;98.19
55675;BME280;41562;44.330;23.802;2023-01-19T01:06:02;99022.59;;;10.43;100.00
55675;BME280;41562;44.330;23.802;2023-01-19T01:08:33;99026.44;;;10.37;98.26
55675;BME280;41562;44.330;23.802;2023-01-19T01:11:02;99028.34;;;10.36;98.01
55675;BME280;41562;44.330;23.802;2023-01-19T01:13:33;99027.03;;;10.34;97.34
55675;BME280;41562;44.330;23.802;2023-01-19T01:16:00;99033.53;;;10.55;100.00
55675;BME280;41562;44.330;23.802;2023-01-19T01:18:30;99028.41;;;10.45;95.98
55675;BME280;41562;44.330;23.802;2023-01-19T01:21:02;99027.44;;;10.41;95.84
55675;BME280;41562;44.330;23.802;2023-01-19T01:23:29;99021.84;;;10.51;95.44
55675;BME280;41562;44.330;23.802;2023-01-19T01:25:57;99021.44;;;10.58;98.61
55675;BME280;41562;44.330;23.802;2023-01-19T01:28:24;99022.84;;;10.55;94.64
55675;BME280;41562;44.330;23.802;2023-01-19T01:30:53;99028.69;;;10.43;95.43
55675;BME280;41562;44.330;23.802;2023-01-19T01:33:21;99029.88;;;10.51;94.88
55675;BME280;41562;44.330;23.802;2023-01-19T01:36:09;99035.91;;;10.57;100.00
55675;BME280;41562;44.330;23.802;2023-01-19T01:38:40;99025.84;;;10.40;95.10
55675;BME280;41562;44.330;23.802;2023-01-19T01:41:08;99028.66;;;10.57;94.31
55675;BME280;41562;44.330;23.802;2023-01-19T01:43:50;99023.03;;;10.59;94.07
55675;BME280;41562;44.330;23.802;2023-01-19T01:46:30;99018.09;;;10.52;95.24
55675;BME280;41562;44.330;23.802;2023-01-19T01:49:21;99019.69;;;10.53;93.77
55675;BME280;41562;44.330;23.802;2023-01-19T01:51:51;99020.69;;;10.43;93.44
55675;BME280;41562;44.330;23.802;2023-01-19T01:54:24;99011.66;;;10.53;93.01
55675;BME280;41562;44.330;23.802;2023-01-19T01:56:56;99021.66;;;10.61;93.92
55675;BME280;41562;44.330;23.802;2023-01-19T01:59:29;99025.97;;;10.71;91.73
55675;BME280;41562;44.330;23.802;2023-01-19T02:02:11;99019.91;;;10.43;92.52
55675;BME280;41562;44.330;23.802;2023-01-19T02:04:59;99013.25;;;10.54;91.76
55675;BME280;41562;44.330;23.802;2023-01-19T02:08:27;99021.41;;;10.71;91.92
55675;BME280;41562;44.330;23.802;2023-01-19T02:10:43;99022.16;;;10.49;91.87
55675;BME280;41562;44.330;23.802;2023-01-19T02:13:11;99018.38;;;10.51;91.44
55675;BME280;41562;44.330;23.802;2023-01-19T02:15:38;99024.06;;;10.49;91.78
55675;BME280;41562;44.330;23.802;2023-01-19T02:18:06;99016.78;;;10.63;90.78
55675;BME280;41562;44.330;23.802;2023-01-19T02:20:37;99010.16;;;10.61;90.11
55675;BME280;41562;44.330;23.802;2023-01-19T02:23:14;99015.31;;;10.57;89.70
55675;BME280;41562;44.330;23.802;2023-01-19T02:25:43;99011.53;;;10.58;89.32
55675;BME280;41562;44.330;23.802;2023-01-19T02:28:11;99005.38;;;10.71;88.50
55675;BME280;41562;44.330;23.802;2023-01-19T02:30:39;99012.09;;;10.69;88.49
55675;BME280;41562;44.330;23.802;2023-01-19T02:33:07;99007.38;;;10.66;87.90
55675;BME280;41562;44.330;23.802;2023-01-19T02:35:36;99004.59;;;10.71;88.60
55675;BME280;41562;44.330;23.802;2023-01-19T02:38:05;99004.66;;;10.79;87.69
55675;BME280;41562;44.330;23.802;2023-01-19T02:40:34;98994.97;;;10.70;87.21
55675;BME280;41562;44.330;23.802;2023-01-19T02:43:03;99000.66;;;10.68;86.95
55675;BME280;41562;44.330;23.802;2023-01-19T02:45:34;98988.78;;;10.61;87.20
55675;BME280;41562;44.330;23.802;2023-01-19T02:48:02;98993.22;;;10.65;87.10
55675;BME280;41562;44.330;23.802;2023-01-19T02:56:24;98994.16;;;10.47;91.02
55675;BME280;41562;44.330;23.802;2023-01-19T03:07:23;99005.13;;;10.45;93.14
55675;BME280;41562;44.330;23.802;2023-01-19T03:10:04;99008.84;;;10.36;87.09
55675;BME280;41562;44.330;23.802;2023-01-19T03:12:46;99004.84;;;10.47;86.19
55675;BME280;41562;44.330;23.802;2023-01-19T03:16:00;98996.13;;;10.55;85.08
55675;BME280;41562;44.330;23.802;2023-01-19T03:18:24;99004.16;;;10.77;84.52
55675;BME280;41562;44.330;23.802;2023-01-19T03:21:00;99002.69;;;10.71;83.45
55675;BME280;41562;44.330;23.802;2023-01-19T03:23:30;99003.19;;;10.73;83.49
55675;BME280;41562;44.330;23.802;2023-01-19T03:26:03;99000.78;;;10.85;87.70
55675;BME280;41562;44.330;23.802;2023-01-19T03:28:34;98996.66;;;10.79;83.35
55675;BME280;41562;44.330;23.802;2023-01-19T03:31:18;98999.63;;;10.78;82.90
55675;BME280;41562;44.330;23.802;2023-01-19T03:33:53;99006.69;;;10.60;83.73
55675;BME280;41562;44.330;23.802;2023-01-19T03:36:34;99002.81;;;10.66;84.88
55675;BME280;41562;44.330;23.802;2023-01-19T03:39:03;99004.19;;;10.64;83.41
55675;BME280;41562;44.330;23.802;2023-01-19T03:41:34;99008.06;;;10.71;82.40
55675;BME280;41562;44.330;23.802;2023-01-19T03:44:04;98996.84;;;10.69;82.65
55675;BME280;41562;44.330;23.802;2023-01-19T03:46:32;99003.88;;;10.79;84.95
55675;BME280;41562;44.330;23.802;2023-01-19T03:48:59;99009.63;;;10.72;82.40
55675;BME280;41562;44.330;23.802;2023-01-19T03:51:37;99014.38;;;10.75;82.03
55675;BME280;41562;44.330;23.802;2023-01-19T03:54:06;99009.88;;;10.84;81.39
55675;BME280;41562;44.330;23.802;2023-01-19T03:56:33;98997.84;;;10.96;80.63
55675;BME280;41562;44.330;23.802;2023-01-19T03:59:02;99004.50;;;10.98;80.42
55675;BME280;41562;44.330;23.802;2023-01-19T04:01:39;99010.31;;;11.00;79.72
55675;BME280;41562;44.330;23.802;2023-01-19T04:04:07;99015.38;;;11.02;79.60
55675;BME280;41562;44.330;23.802;2023-01-19T04:06:41;99026.72;;;14.74;71.23
55675;BME280;41562;44.330;23.802;2023-01-19T04:09:18;99023.66;;;14.25;67.44
55675;BME280;41562;44.330;23.802;2023-01-19T04:11:49;99033.78;;;14.28;66.62
55675;BME280;41562;44.330;23.802;2023-01-19T04:14:19;99034.75;;;15.69;67.93
55675;BME280;41562;44.330;23.802;2023-01-19T04:16:46;99034.31;;;15.13;65.20
55675;BME280;41562;44.330;23.802;2023-01-19T04:19:13;99025.94;;;14.15;65.69
55675;BME280;41562;44.330;23.802;2023-01-19T04:21:41;99024.66;;;13.83;71.38
55675;BME280;41562;44.330;23.802;2023-01-19T04:24:14;99022.69;;;13.54;70.28
55675;BME280;41562;44.330;23.802;2023-01-19T04:26:42;99029.44;;;13.68;69.19
55675;BME280;41562;44.330;23.802;2023-01-19T04:29:15;99024.50;;;13.79;71.18
55675;BME280;41562;44.330;23.802;2023-01-19T04:31:49;99017.91;;;12.13;76.17
55675;BME280;41562;44.330;23.802;2023-01-19T04:34:39;99025.03;;;11.56;77.85
55675;BME280;41562;44.330;23.802;2023-01-19T04:37:22;99021.13;;;11.40;78.81
55675;BME280;41562;44.330;23.802;2023-01-19T04:39:49;99029.34;;;11.21;81.87
55675;BME280;41562;44.330;23.802;2023-01-19T04:42:17;99016.91;;;11.16;85.26
55675;BME280;41562;44.330;23.802;2023-01-19T04:44:45;99026.69;;;11.21;81.96
55675;BME280;41562;44.330;23.802;2023-01-19T04:47:21;99031.28;;;11.07;80.80
55675;BME280;41562;44.330;23.802;2023-01-19T04:49:51;99020.84;;;11.41;83.49
55675;BME280;41562;44.330;23.802;2023-01-19T04:52:23;99016.81;;;11.08;79.62
55675;BME280;41562;44.330;23.802;2023-01-19T04:54:53;99016.63;;;11.26;81.68
55675;BME280;41562;44.330;23.802;2023-01-19T04:57:21;99025.47;;;11.27;81.92
55675;BME280;41562;44.330;23.802;2023-01-19T04:59:49;99028.38;;;11.39;81.21
55675;BME280;41562;44.330;23.802;2023-01-19T05:02:18;99021.81;;;11.23;78.28
55675;BME280;41562;44.330;23.802;2023-01-19T05:04:48;99041.28;;;11.15;80.01
55675;BME280;41562;44.330;23.802;2023-01-19T05:07:16;99030.44;;;11.20;79.77
55675;BME280;41562;44.330;23.802;2023-01-19T05:09:48;99034.75;;;11.07;80.06
55675;BME280;41562;44.330;23.802;2023-01-19T05:12:16;99029.03;;;11.00;79.95
55675;BME280;41562;44.330;23.802;2023-01-19T05:14:48;99027.09;;;10.92;80.73
55675;BME280;41562;44.330;23.802;2023-01-19T05:17:15;99035.84;;;10.84;83.75
55675;BME280;41562;44.330;23.802;2023-01-19T05:19:48;99034.25;;;10.83;82.28
55675;BME280;41562;44.330;23.802;2023-01-19T05:22:15;99030.47;;;10.62;83.23
55675;BME280;41562;44.330;23.802;2023-01-19T05:24:49;99028.50;;;10.54;83.58
55675;BME280;41562;44.330;23.802;2023-01-19T05:27:19;99027.38;;;10.68;86.63
55675;BME280;41562;44.330;23.802;2023-01-19T05:29:48;99025.63;;;10.50;84.09
55675;BME280;41562;44.330;23.802;2023-01-19T05:32:19;99019.47;;;10.49;84.21
55675;BME280;41562;44.330;23.802;2023-01-19T05:34:51;99029.31;;;10.40;84.62
55675;BME280;41562;44.330;23.802;2023-01-19T05:37:22;99020.66;;;10.57;89.88
55675;BME280;41562;44.330;23.802;2023-01-19T05:39:52;99017.13;;;10.48;84.48
55675;BME280;41562;44.330;23.802;2023-01-19T05:42:22;99012.47;;;10.54;84.48
55675;BME280;41562;44.330;23.802;2023-01-19T05:44:58;99015.81;;;10.59;83.58
55675;BME280;41562;44.330;23.802;2023-01-19T05:47:50;99034.66;;;10.76;87.03
55675;BME280;41562;44.330;23.802;2023-01-19T05:50:29;99040.25;;;10.66;83.33
55675;BME280;41562;44.330;23.802;2023-01-19T05:53:00;99035.06;;;10.70;82.98
55675;BME280;41562;44.330;23.802;2023-01-19T05:55:28;99039.25;;;10.62;83.64
55675;BME280;41562;44.330;23.802;2023-01-19T05:57:56;99034.47;;;10.86;86.11
55675;BME280;41562;44.330;23.802;2023-01-19T06:00:23;99040.44;;;10.70;82.87
55675;BME280;41562;44.330;23.802;2023-01-19T06:02:52;99046.56;;;10.70;82.66
55675;BME280;41562;44.330;23.802;2023-01-19T06:05:22;99041.84;;;10.67;82.44
55675;BME280;41562;44.330;23.802;2023-01-19T06:07:50;99046.25;;;10.85;85.21
55675;BME280;41562;44.330;23.802;2023-01-19T06:10:22;99043.31;;;10.73;82.91
55675;BME280;41562;44.330;23.802;2023-01-19T06:12:52;99040.66;;;10.60;83.89
55675;BME280;41562;44.330;23.802;2023-01-19T06:15:22;99037.31;;;10.54;84.44
55675;BME280;41562;44.330;23.802;2023-01-19T06:17:50;99045.06;;;10.78;87.18
55675;BME280;41562;44.330;23.802;2023-01-19T06:20:20;99046.78;;;10.74;84.04
55675;BME280;41562;44.330;23.802;2023-01-19T06:22:50;99052.13;;;10.60;84.30
55675;BME280;41562;44.330;23.802;2023-01-19T06:25:18;99048.38;;;10.61;84.32
55675;BME280;41562;44.330;23.802;2023-01-19T06:27:52;99040.63;;;10.73;88.14
55675;BME280;41562;44.330;23.802;2023-01-19T06:30:22;99038.91;;;10.55;85.24
55675;BME280;41562;44.330;23.802;2023-01-19T06:32:52;99037.31;;;10.54;86.01
55675;BME280;41562;44.330;23.802;2023-01-19T06:35:21;99047.38;;;10.57;85.86
55675;BME280;41562;44.330;23.802;2023-01-19T06:37:49;99044.97;;;10.69;87.66
55675;BME280;41562;44.330;23.802;2023-01-19T06:40:16;99050.53;;;10.73;85.14
55675;BME280;41562;44.330;23.802;2023-01-19T06:42:49;99053.13;;;10.64;86.01
55675;BME280;41562;44.330;23.802;2023-01-19T06:45:22;99052.91;;;10.74;85.72
55675;BME280;41562;44.330;23.802;2023-01-19T06:47:49;99050.50;;;10.86;87.63
55675;BME280;41562;44.330;23.802;2023-01-19T06:50:19;99063.38;;;10.84;85.99
55675;BME280;41562;44.330;23.802;2023-01-19T06:52:53;99057.75;;;10.72;86.29
55675;BME280;41562;44.330;23.802;2023-01-19T06:55:21;99061.78;;;10.83;86.32
55675;BME280;41562;44.330;23.802;2023-01-19T06:57:58;99077.63;;;10.94;87.71
55675;BME280;41562;44.330;23.802;2023-01-19T07:00:26;99073.94;;;10.89;85.87
55675;BME280;41562;44.330;23.802;2023-01-19T07:02:59;99076.22;;;10.96;85.65
55675;BME280;41562;44.330;23.802;2023-01-19T07:05:27;99084.84;;;10.93;85.83
55675;BME280;41562;44.330;23.802;2023-01-19T07:07:55;99076.59;;;11.03;87.23
55675;BME280;41562;44.330;23.802;2023-01-19T07:10:23;99075.00;;;11.02;86.46
55675;BME280;41562;44.330;23.802;2023-01-19T07:12:50;99069.84;;;11.28;85.27
55675;BME280;41562;44.330;23.802;2023-01-19T07:15:18;99065.41;;;11.46;83.92
55675;BME280;41562;44.330;23.802;2023-01-19T07:17:46;99076.28;;;11.72;84.58
55675;BME280;41562;44.330;23.802;2023-01-19T07:20:13;99064.59;;;11.67;82.43
55675;BME280;41562;44.330;23.802;2023-01-19T07:22:41;99061.78;;;11.42;82.39
55675;BME280;41562;44.330;23.802;2023-01-19T07:25:12;99067.25;;;11.90;81.25
55675;BME280;41562;44.330;23.802;2023-01-19T07:27:42;99053.81;;;12.12;82.02
55675;BME280;41562;44.330;23.802;2023-01-19T07:30:11;99070.38;;;12.71;77.67
55675;BME280;41562;44.330;23.802;2023-01-19T07:32:41;99053.81;;;13.03;75.95
55675;BME280;41562;44.330;23.802;2023-01-19T07:35:14;99067.13;;;13.17;74.67
55675;BME280;41562;44.330;23.802;2023-01-19T07:37:51;99056.50;;;13.55;75.00
55675;BME280;41562;44.330;23.802;2023-01-19T07:40:20;99054.91;;;13.62;73.18
55675;BME280;41562;44.330;23.802;2023-01-19T07:42:50;99071.31;;;13.78;71.97
55675;BME280;41562;44.330;23.802;2023-01-19T07:45:22;99063.81;;;13.92;71.09
55675;BME280;41562;44.330;23.802;2023-01-19T07:47:51;99060.22;;;14.18;73.87
55675;BME280;41562;44.330;23.802;2023-01-19T07:50:18;99077.13;;;14.27;72.74
55675;BME280;41562;44.330;23.802;2023-01-19T07:52:52;99075.84;;;14.33;71.20
55675;BME280;41562;44.330;23.802;2023-01-19T07:55:26;99077.75;;;14.24;71.14
55675;BME280;41562;44.330;23.802;2023-01-19T07:58:06;99078.84;;;13.93;74.71
55675;BME280;41562;44.330;23.802;2023-01-19T08:00:34;99085.38;;;13.66;74.38
55675;BME280;41562;44.330;23.802;2023-01-19T08:03:07;99095.31;;;13.66;74.59
55675;BME280;41562;44.330;23.802;2023-01-19T08:05:40;99096.31;;;13.53;74.98
55675;BME280;41562;44.330;23.802;2023-01-19T08:08:08;99086.72;;;13.98;81.12
55675;BME280;41562;44.330;23.802;2023-01-19T08:10:38;99086.38;;;14.08;72.45
55675;BME280;41562;44.330;23.802;2023-01-19T08:13:07;99101.25;;;14.73;69.59
55675;BME280;41562;44.330;23.802;2023-01-19T08:15:35;99109.13;;;15.28;66.76
55675;BME280;41562;44.330;23.802;2023-01-19T08:18:03;99115.91;;;15.55;66.63
55675;BME280;41562;44.330;23.802;2023-01-19T08:20:30;99115.31;;;15.83;63.19
55675;BME280;41562;44.330;23.802;2023-01-19T08:22:58;99114.31;;;15.54;63.40
55675;BME280;41562;44.330;23.802;2023-01-19T08:25:41;99111.94;;;15.53;63.75
55675;BME280;41562;44.330;23.802;2023-01-19T08:28:14;99118.41;;;16.05;65.72
55675;BME280;41562;44.330;23.802;2023-01-19T08:30:44;99115.81;;;15.64;63.52
55675;BME280;41562;44.330;23.802;2023-01-19T08:33:12;99110.34;;;15.73;64.00
55675;BME280;41562;44.330;23.802;2023-01-19T08:35:42;99118.22;;;15.78;63.81
55675;BME280;41562;44.330;23.802;2023-01-19T08:38:10;99116.53;;;15.73;65.03
55675;BME280;41562;44.330;23.802;2023-01-19T08:41:02;99123.13;;;16.08;69.28
55675;BME280;41562;44.330;23.802;2023-01-19T08:43:32;99117.84;;;16.12;63.62
55675;BME280;41562;44.330;23.802;2023-01-19T08:46:07;99112.47;;;16.12;62.89
55675;BME280;41562;44.330;23.802;2023-01-19T08:48:34;99111.31;;;16.13;63.19
55675;BME280;41562;44.330;23.802;2023-01-19T08:51:11;99118.28;;;16.14;63.92
55675;BME280;41562;44.330;23.802;2023-01-19T08:53:42;99104.88;;;15.93;65.91
55675;BME280;41562;44.330;23.802;2023-01-19T08:56:15;99115.31;;;15.83;64.75
55675;BME280;41562;44.330;23.802;2023-01-19T08:58:54;99108.03;;;15.95;65.70
55675;BME280;41562;44.330;23.802;2023-01-19T09:01:37;99116.31;;;15.78;65.27
55675;BME280;41562;44.330;23.802;2023-01-19T09:04:11;99101.69;;;15.46;66.76
55675;BME280;41562;44.330;23.802;2023-01-19T09:06:48;99095.34;;;15.30;68.69
55675;BME280;41562;44.330;23.802;2023-01-19T09:09:15;99111.31;;;15.68;68.26
55675;BME280;41562;44.330;23.802;2023-01-19T09:11:48;99108.38;;;15.40;68.60
55675;BME280;41562;44.330;23.802;2023-01-19T09:14:19;99099.09;;;15.17;69.75
55675;BME280;41562;44.330;23.802;2023-01-19T09:16:48;99089.22;;;15.21;69.85
55675;BME280;41562;44.330;23.802;2023-01-19T09:19:18;99093.88;;;15.33;73.63
55675;BME280;41562;44.330;23.802;2023-01-19T09:21:46;99098.47;;;15.11;70.62
55675;BME280;41562;44.330;23.802;2023-01-19T09:24:13;99100.38;;;15.32;69.71
55675;BME280;41562;44.330;23.802;2023-01-19T09:26:41;99092.81;;;15.25;70.74
55675;BME280;41562;44.330;23.802;2023-01-19T09:29:10;99087.09;;;15.47;73.33
55675;BME280;41562;44.330;23.802;2023-01-19T09:31:37;99076.13;;;15.52;69.84
55675;BME280;41562;44.330;23.802;2023-01-19T09:34:05;99079.97;;;15.63;69.70
55675;BME280;41562;44.330;23.802;2023-01-19T09:36:33;99080.66;;;15.40;69.95
55675;BME280;41562;44.330;23.802;2023-01-19T09:39:00;99086.16;;;15.64;72.10
55675;BME280;41562;44.330;23.802;2023-01-19T09:41:28;99078.63;;;15.37;70.98
55675;BME280;41562;44.330;23.802;2023-01-19T09:43:58;99070.63;;;15.28;70.88
55675;BME280;41562;44.330;23.802;2023-01-19T09:46:37;99064.97;;;15.21;71.01
55675;BME280;41562;44.330;23.802;2023-01-19T09:49:26;99064.03;;;15.58;71.53
55675;BME280;41562;44.330;23.802;2023-01-19T09:51:59;99066.25;;;15.56;69.94
55675;BME280;41562;44.330;23.802;2023-01-19T09:57:00;99059.47;;;15.50;71.08
55675;BME280;41562;44.330;23.802;2023-01-19T09:59:30;99047.69;;;15.88;74.05
55675;BME280;41562;44.330;23.802;2023-01-19T10:02:25;99051.47;;;15.75;72.92
55675;BME280;41562;44.330;23.802;2023-01-19T10:10:34;99043.09;;;16.13;64.90
55675;BME280;41562;44.330;23.802;2023-01-19T10:13:54;99028.16;;;16.15;63.31
55675;BME280;41562;44.330;23.802;2023-01-19T10:16:08;99013.47;;;16.25;62.42
55675;BME280;41562;44.330;23.802;2023-01-19T10:18:47;99014.88;;;16.46;63.23
55675;BME280;41562;44.330;23.802;2023-01-19T10:21:36;99016.47;;;16.47;60.84
55675;BME280;41562;44.330;23.802;2023-01-19T10:26:50;99024.44;;;16.56;59.82
55675;BME280;41562;44.330;23.802;2023-01-19T10:29:33;99011.25;;;16.79;60.91
55675;BME280;41562;44.330;23.802;2023-01-19T10:32:10;99017.03;;;17.49;61.01
55675;BME280;41562;44.330;23.802;2023-01-19T10:34:40;99023.84;;;17.15;58.40
55675;BME280;41562;44.330;23.802;2023-01-19T10:39:45;99024.38;;;17.20;57.78
55675;BME280;41562;44.330;23.802;2023-01-19T10:42:15;99018.81;;;17.13;57.36
55675;BME280;41562;44.330;23.802;2023-01-19T10:44:43;99020.94;;;17.08;58.22
55675;BME280;41562;44.330;23.802;2023-01-19T10:47:15;99012.50;;;17.09;58.45
55675;BME280;41562;44.330;23.802;2023-01-19T10:49:44;99021.84;;;17.55;58.87
55675;BME280;41562;44.330;23.802;2023-01-19T10:52:34;99005.38;;;17.45;56.95
55675;BME280;41562;44.330;23.802;2023-01-19T10:55:07;99004.47;;;17.41;56.78
55675;BME280;41562;44.330;23.802;2023-01-19T10:57:47;99007.44;;;17.63;56.56
55675;BME280;41562;44.330;23.802;2023-01-19T11:00:41;99003.94;;;17.63;57.67
55675;BME280;41562;44.330;23.802;2023-01-19T11:03:32;98986.84;;;17.75;57.54
55675;BME280;41562;44.330;23.802;2023-01-19T11:06:29;98994.53;;;17.88;57.06
55675;BME280;41562;44.330;23.802;2023-01-19T11:09:18;98996.59;;;18.11;59.63
55675;BME280;41562;44.330;23.802;2023-01-19T11:11:49;98995.38;;;18.08;57.68
55675;BME280;41562;44.330;23.802;2023-01-19T11:14:21;98992.72;;;18.27;59.11
55675;BME280;41562;44.330;23.802;2023-01-19T11:16:54;98993.97;;;18.14;57.66
55675;BME280;41562;44.330;23.802;2023-01-19T11:19:29;98991.06;;;18.23;59.51
55675;BME280;41562;44.330;23.802;2023-01-19T11:22:17;98994.16;;;18.05;58.10
55675;BME280;41562;44.330;23.802;2023-01-19T11:24:48;98990.03;;;17.96;58.32
55675;BME280;41562;44.330;23.802;2023-01-19T11:27:18;98984.63;;;18.12;58.23
55675;BME280;41562;44.330;23.802;2023-01-19T11:30:06;98973.97;;;18.19;58.15
55675;BME280;41562;44.330;23.802;2023-01-19T11:32:34;98979.22;;;18.12;58.45
55675;BME280;41562;44.330;23.802;2023-01-19T11:40:43;98984.66;;;18.81;55.24
55675;BME280;41562;44.330;23.802;2023-01-19T11:43:12;99004.69;;;19.15;51.57
55675;BME280;41562;44.330;23.802;2023-01-19T11:45:43;99010.91;;;18.97;51.71
55675;BME280;41562;44.330;23.802;2023-01-19T11:48:38;99031.41;;;18.98;54.76
55675;BME280;41562;44.330;23.802;2023-01-19T11:51:08;99018.38;;;18.84;53.06
55675;BME280;41562;44.330;23.802;2023-01-19T11:53:40;99012.84;;;18.61;53.52
55675;BME280;41562;44.330;23.802;2023-01-19T11:56:10;99016.34;;;18.81;54.07
55675;BME280;41562;44.330;23.802;2023-01-19T11:58:44;99017.13;;;18.62;56.26
55675;BME280;41562;44.330;23.802;2023-01-19T12:03:58;99019.28;;;17.90;55.21
55675;BME280;41562;44.330;23.802;2023-01-19T12:06:37;99003.72;;;17.56;56.97
55675;BME280;41562;44.330;23.802;2023-01-19T12:11:40;99016.94;;;17.45;58.39
55675;BME280;41562;44.330;23.802;2023-01-19T12:14:22;99022.25;;;17.42;58.36
55675;BME280;41562;44.330;23.802;2023-01-19T12:16:56;99044.06;;;17.49;58.77
55675;BME280;41562;44.330;23.802;2023-01-19T12:19:41;99049.28;;;17.14;70.57
55675;BME280;41562;44.330;23.802;2023-01-19T12:22:13;99051.78;;;16.67;66.41
55675;BME280;41562;44.330;23.802;2023-01-19T12:27:41;99067.28;;;16.09;69.28
55675;BME280;41562;44.330;23.802;2023-01-19T12:30:23;99063.47;;;16.22;73.03
55675;BME280;41562;44.330;23.802;2023-01-19T12:35:57;99077.28;;;15.63;72.12
55675;BME280;41562;44.330;23.802;2023-01-19T12:38:45;99075.66;;;15.83;78.17
55675;BME280;41562;44.330;23.802;2023-01-19T12:41:27;99085.75;;;15.74;73.09
55675;BME280;41562;44.330;23.802;2023-01-19T12:46:41;99115.03;;;15.43;74.03
55675;BME280;41562;44.330;23.802;2023-01-19T12:49:38;99119.38;;;15.35;75.94
55675;BME280;41562;44.330;23.802;2023-01-19T12:52:27;99116.72;;;15.06;75.35
55675;BME280;41562;44.330;23.802;2023-01-19T13:05:54;99114.13;;;14.97;75.39
55675;BME280;41562;44.330;23.802;2023-01-19T13:08:24;99107.38;;;14.82;81.62
55675;BME280;41562;44.330;23.802;2023-01-19T13:13:22;99104.41;;;14.75;76.61
55675;BME280;41562;44.330;23.802;2023-01-19T13:15:50;99104.81;;;14.65;76.57
55675;BME280;41562;44.330;23.802;2023-01-19T13:18:27;99117.59;;;14.98;76.39
55675;BME280;41562;44.330;23.802;2023-01-19T13:20:57;99129.66;;;15.12;76.14
55675;BME280;41562;44.330;23.802;2023-01-19T13:23:28;99118.72;;;14.97;75.01
55675;BME280;41562;44.330;23.802;2023-01-19T13:26:17;99098.28;;;14.96;75.36
55675;BME280;41562;44.330;23.802;2023-01-19T13:28:49;99097.25;;;15.09;76.69
55675;BME280;41562;44.330;23.802;2023-01-19T13:31:18;99114.84;;;15.27;75.17
55675;BME280;41562;44.330;23.802;2023-01-19T13:33:57;99126.25;;;15.24;74.73
55675;BME280;41562;44.330;23.802;2023-01-19T13:36:36;99136.78;;;15.17;74.90
55675;BME280;41562;44.330;23.802;2023-01-19T13:39:12;99127.19;;;15.28;79.35
55675;BME280;41562;44.330;23.802;2023-01-19T13:41:42;99103.69;;;15.16;75.10
55675;BME280;41562;44.330;23.802;2023-01-19T13:44:24;99098.22;;;15.04;76.01
55675;BME280;41562;44.330;23.802;2023-01-19T13:46:55;99109.25;;;14.91;76.32
55675;BME280;41562;44.330;23.802;2023-01-19T13:54:34;99117.91;;;14.96;76.20
55675;BME280;41562;44.330;23.802;2023-01-19T13:57:01;99126.53;;;14.81;76.56
55675;BME280;41562;44.330;23.802;2023-01-19T13:59:29;99130.78;;;15.11;81.76
55675;BME280;41562;44.330;23.802;2023-01-19T14:02:03;99134.06;;;14.96;76.85
55675;BME280;41562;44.330;23.802;2023-01-19T14:04:36;99118.53;;;14.72;77.50
55675;BME280;41562;44.330;23.802;2023-01-19T14:07:13;99135.94;;;14.75;77.58
55675;BME280;41562;44.330;23.802;2023-01-19T14:09:44;99135.09;;;14.83;81.50
55675;BME280;41562;44.330;23.802;2023-01-19T14:12:15;99136.16;;;14.61;77.85
55675;BME280;41562;44.330;23.802;2023-01-19T14:14:44;99136.84;;;14.49;78.88
55675;BME280;41562;44.330;23.802;2023-01-19T14:17:27;99136.09;;;14.40;79.64
55675;BME280;41562;44.330;23.802;2023-01-19T14:19:56;99138.84;;;14.61;83.75
55675;BME280;41562;44.330;23.802;2023-01-19T14:22:42;99148.91;;;14.43;79.88
55675;BME280;41562;44.330;23.802;2023-01-19T14:30:54;99165.69;;;14.32;81.64